createdAt,value
2022-08-10T00:01:41.954Z,100206.25
2022-08-10T00:04:29.732Z,100199.75
2022-08-10T00:07:17.111Z,100205.75
2022-08-10T00:10:06.590Z,100207.44
2022-08-10T00:12:55.259Z,100207.38
2022-08-10T00:15:53.724Z,100196.31
2022-08-10T00:18:42.850Z,100209.63
2022-08-10T00:21:30.053Z,100207.75
2022-08-10T00:24:17.682Z,100197.94
2022-08-10T00:28:02.115Z,100213.06
2022-08-10T00:30:14.564Z,100209.16
2022-08-10T00:33:03.591Z,100214.75
2022-08-10T00:35:52.354Z,100214.53
2022-08-10T00:38:39.709Z,100209.50
2022-08-10T00:41:27.021Z,100212.47
2022-08-10T00:44:14.598Z,100210.69
2022-08-10T00:47:02.126Z,100213.66
2022-08-10T00:49:51.299Z,100210.78
2022-08-10T00:52:39.850Z,100203.09
2022-08-10T00:55:28.589Z,100216.22
2022-08-10T00:58:16.782Z,100212.25
2022-08-10T01:01:04.450Z,100205.94
2022-08-10T01:04:54.387Z,100211.84
2022-08-10T01:07:16.216Z,100205.53
2022-08-10T01:10:20.359Z,100206.63
2022-08-10T01:13:14.810Z,100203.72
2022-08-10T01:16:13.293Z,100191.31
2022-08-10T01:19:10.925Z,100198.81
2022-08-10T01:22:41.725Z,100198.41
2022-08-10T01:26:10.599Z,100195.75
2022-08-10T01:29:18.518Z,100197.41
2022-08-10T01:32:10.762Z,100195.03
2022-08-10T01:35:07.721Z,100197.97
2022-08-10T01:38:05.220Z,100195.97
2022-08-10T01:40:57.751Z,100190.75
2022-08-10T01:43:53.063Z,100193.41
2022-08-10T01:46:46.533Z,100200.59
2022-08-10T01:49:35.703Z,100201.16
2022-08-10T01:52:24.891Z,100197.22
2022-08-10T01:55:14.645Z,100198.03
2022-08-10T01:58:07.869Z,100194.84
2022-08-10T02:00:57.557Z,100204.19
2022-08-10T02:04:04.457Z,100199.97
2022-08-10T02:06:57.204Z,100198.47
2022-08-10T02:09:49.892Z,100201.41
2022-08-10T02:12:38.226Z,100199.63
2022-08-10T02:15:30.552Z,100202.34
2022-08-10T02:18:19.509Z,100213.56
2022-08-10T02:21:09.502Z,100208.34
2022-08-10T02:24:01.829Z,100207.34
2022-08-10T02:26:51.831Z,100212.66
2022-08-10T02:29:49.249Z,100216.94
2022-08-10T02:32:38.880Z,100223.91
2022-08-10T02:35:29.180Z,100220.25
2022-08-10T02:38:57.681Z,100204.63
2022-08-10T02:45:13.002Z,100214.50
2022-08-10T02:45:18.777Z,100222.47
2022-08-10T02:48:17.849Z,100216.66
2022-08-10T02:51:12.751Z,100212.94
2022-08-10T02:54:08.449Z,100217.16
2022-08-10T02:57:04.397Z,100216.16
2022-08-10T02:59:54.255Z,100209.84
2022-08-10T03:02:46.796Z,100215.44
2022-08-10T03:05:35.457Z,100218.38
2022-08-10T03:08:29.868Z,100204.59
2022-08-10T03:12:37.428Z,100214.41
2022-08-10T03:14:35.567Z,100210.47
2022-08-10T03:17:24.908Z,100210.28
2022-08-10T03:20:36.503Z,100207.81
2022-08-10T03:23:26.458Z,100211.84
2022-08-10T03:26:20.336Z,100208.66
2022-08-10T03:29:10.076Z,100213.19
2022-08-10T03:32:00.718Z,100212.66
2022-08-10T03:34:48.979Z,100213.72
2022-08-10T03:37:36.389Z,100218.03
2022-08-10T03:40:24.416Z,100213.28
2022-08-10T03:43:32.891Z,100225.47
2022-08-10T03:46:23.292Z,100217.50
2022-08-10T03:49:13.141Z,100209.84
2022-08-10T03:52:01.318Z,100213.06
2022-08-10T03:54:51.594Z,100212.84
2022-08-10T03:57:49.392Z,100214.97
2022-08-10T04:00:38.309Z,100220.38
2022-08-10T04:03:26.342Z,100219.84
2022-08-10T04:06:18.854Z,100221.97
2022-08-10T04:09:06.466Z,100235.75
2022-08-10T04:11:54.252Z,100227.28
2022-08-10T04:14:50.687Z,100230.78
2022-08-10T04:17:59.342Z,100233.31
2022-08-10T04:20:50.435Z,100246.06
2022-08-10T04:23:47.844Z,100241.06
2022-08-10T04:26:39.147Z,100242.66
2022-08-10T04:29:26.805Z,100243.53
2022-08-10T04:32:18.873Z,100239.00
2022-08-10T04:35:10.971Z,100246.94
2022-08-10T04:38:00.727Z,100245.09
2022-08-10T04:40:49.503Z,100237.72
2022-08-10T04:43:37.680Z,100248.09
2022-08-10T04:46:56.336Z,100240.66
2022-08-10T04:49:54.156Z,100235.91
2022-08-10T04:52:40.507Z,100236.69
2022-08-10T04:55:27.775Z,100239.63
2022-08-10T04:58:16.635Z,100233.00
2022-08-10T05:01:04.518Z,100228.75
2022-08-10T05:04:35.171Z,100239.34
2022-08-10T05:06:59.915Z,100238.31
2022-08-10T05:10:02.311Z,100239.44
2022-08-10T05:12:53.115Z,100242.66
2022-08-10T05:15:43.932Z,100242.16
2022-08-10T05:18:31.720Z,100247.19
2022-08-10T05:22:02.462Z,100251.16
2022-08-10T05:24:26.791Z,100259.13
2022-08-10T05:27:14.346Z,100256.97
2022-08-10T05:30:03.683Z,100250.09
2022-08-10T05:32:56.462Z,100258.84
2022-08-10T05:35:57.115Z,100257.97
2022-08-10T05:38:46.675Z,100251.06
2022-08-10T05:41:34.263Z,100250.53
2022-08-10T05:44:23.419Z,100249.66
2022-08-10T05:47:12.781Z,100255.19
2022-08-10T05:50:01.796Z,100259.19
2022-08-10T05:52:49.751Z,100262.34
2022-08-10T05:55:37.445Z,100263.66
2022-08-10T05:58:25.154Z,100268.09
2022-08-10T06:01:16.429Z,100259.88
2022-08-10T06:04:05.481Z,100258.25
2022-08-10T06:06:55.749Z,100258.97
2022-08-10T06:09:59.177Z,100256.25
2022-08-10T06:13:14.084Z,100254.59
2022-08-10T06:16:17.445Z,100253.19
2022-08-10T06:19:05.382Z,100249.91
2022-08-10T06:22:00.933Z,100255.38
2022-08-10T06:25:18.416Z,100256.63
2022-08-10T06:27:58.616Z,100250.22
2022-08-10T06:30:47.400Z,100254.88
2022-08-10T06:33:39.376Z,100263.78
2022-08-10T06:36:30.272Z,100261.03
2022-08-10T06:39:33.613Z,100260.91
2022-08-10T06:42:29.719Z,100255.75
2022-08-10T06:45:21.038Z,100259.91
2022-08-10T06:48:20.579Z,100259.81
2022-08-10T06:51:15.635Z,100260.25
2022-08-10T06:54:07.834Z,100254.56
2022-08-10T06:57:17.414Z,100259.22
2022-08-10T07:00:08.609Z,100263.59
2022-08-10T07:03:00.335Z,100265.28
2022-08-10T07:05:51.570Z,100254.31
2022-08-10T07:08:41.135Z,100266.16
2022-08-10T07:11:30.179Z,100267.34
2022-08-10T07:14:20.070Z,100255.28
2022-08-10T07:17:08.817Z,100262.56
2022-08-10T07:20:06.282Z,100252.03
2022-08-10T07:23:05.904Z,100263.28
2022-08-10T07:26:07.197Z,100269.03
2022-08-10T07:28:56.333Z,100258.78
2022-08-10T07:31:55.962Z,100258.63
2022-08-10T07:34:48.086Z,100271.22
2022-08-10T07:37:37.628Z,100247.97
2022-08-10T07:40:25.532Z,100261.56
2022-08-10T07:43:14.276Z,100257.72
2022-08-10T07:46:03.329Z,100265.22
2022-08-10T07:49:01.488Z,100261.88
2022-08-10T07:51:54.546Z,100254.47
2022-08-10T07:54:47.411Z,100259.38
2022-08-10T07:57:40.269Z,100256.78
2022-08-10T08:00:31.846Z,100256.84
2022-08-10T08:03:26.875Z,100259.78
2022-08-10T08:06:17.224Z,100260.56
2022-08-10T08:09:06.945Z,100257.66
2022-08-10T08:11:56.041Z,100263.50
2022-08-10T08:14:45.535Z,100263.47
2022-08-10T08:17:36.540Z,100257.25
2022-08-10T08:20:27.256Z,100254.69
2022-08-10T08:24:05.896Z,100254.72
2022-08-10T08:26:30.372Z,100261.06
2022-08-10T08:29:20.105Z,100248.84
2022-08-10T08:32:09.349Z,100256.25
2022-08-10T08:35:00.872Z,100258.50
2022-08-10T08:38:30.554Z,100250.84
2022-08-10T08:41:34.045Z,100246.50
2022-08-10T08:44:34.945Z,100250.28
2022-08-10T08:47:51.697Z,100251.56
2022-08-10T08:51:09.660Z,100243.09
2022-08-10T08:54:11.137Z,100241.44
2022-08-10T08:57:09.684Z,100241.09
2022-08-10T09:00:13.466Z,100247.41
2022-08-10T09:03:37.221Z,100231.84
2022-08-10T09:06:55.139Z,100248.03
2022-08-10T09:10:09.544Z,100243.03
2022-08-10T09:13:08.945Z,100243.66
2022-08-10T09:16:30.324Z,100248.81
2022-08-10T09:19:34.971Z,100248.69
2022-08-10T09:22:33.333Z,100245.38
2022-08-10T09:25:25.179Z,100246.63
2022-08-10T09:28:26.505Z,100243.94
2022-08-10T09:31:23.307Z,100263.78
2022-08-10T09:36:25.556Z,100242.38
2022-08-10T09:37:39.915Z,100241.44
2022-08-10T09:40:59.334Z,100243.63
2022-08-10T09:44:00.272Z,100237.97
2022-08-10T09:48:00.072Z,100233.41
2022-08-10T09:51:41.782Z,100212.31
2022-08-10T09:54:09.531Z,100223.44
2022-08-10T09:57:43.553Z,100231.47
2022-08-10T10:00:24.750Z,100224.06
2022-08-10T10:03:21.525Z,100223.41
2022-08-10T10:06:20.428Z,100226.09
2022-08-10T10:09:15.815Z,100214.47
2022-08-10T10:12:18.730Z,100212.91
2022-08-10T10:15:24.414Z,100214.16
2022-08-10T10:18:28.361Z,100213.97
2022-08-10T10:21:54.048Z,100200.75
2022-08-10T10:24:52.564Z,100194.75
2022-08-10T10:27:48.165Z,100191.13
2022-08-10T10:30:55.429Z,100203.38
2022-08-10T10:33:53.370Z,100197.22
2022-08-10T10:36:43.649Z,100185.44
2022-08-10T10:39:33.276Z,100189.22
2022-08-10T10:42:49.433Z,100175.50
2022-08-10T10:45:49.938Z,100190.94
2022-08-10T10:48:44.664Z,100163.84
2022-08-10T10:51:39.599Z,100159.41
2022-08-10T10:54:37.374Z,100158.78
2022-08-10T10:57:59.957Z,100160.47
2022-08-10T11:00:51.940Z,100155.59
2022-08-10T11:03:57.938Z,100154.16
2022-08-10T11:06:58.649Z,100154.78
2022-08-10T11:10:05.262Z,100142.19
2022-08-10T11:14:25.316Z,100143.44
2022-08-10T11:16:37.182Z,100131.78
2022-08-10T11:20:00.130Z,100140.13
2022-08-10T11:22:52.419Z,100143.91
2022-08-10T11:25:47.179Z,100148.59
2022-08-10T11:28:42.413Z,100151.28
2022-08-10T11:31:37.492Z,100141.41
2022-08-10T11:34:48.892Z,100154.59
2022-08-10T11:38:29.620Z,100149.44
2022-08-10T11:42:06.658Z,100129.91
2022-08-10T11:44:35.058Z,100139.88
2022-08-10T11:47:31.756Z,100138.75
2022-08-10T11:50:25.320Z,100126.91
2022-08-10T11:53:23.076Z,100118.56
2022-08-10T11:56:14.192Z,100111.44
2022-08-10T11:59:19.174Z,100119.34
2022-08-10T12:02:08.748Z,100117.09
2022-08-10T12:05:08.779Z,100113.66
2022-08-10T12:10:07.708Z,100124.50
2022-08-10T12:11:08.863Z,100111.44
2022-08-10T12:14:22.015Z,100109.22
2022-08-10T12:17:18.690Z,100101.97
2022-08-10T12:20:12.065Z,100101.50
2022-08-10T12:23:12.089Z,100091.44
2022-08-10T12:26:07.668Z,100099.16
2022-08-10T12:29:04.813Z,100086.25
2022-08-10T12:32:01.056Z,100079.91
2022-08-10T12:34:56.558Z,100083.03
2022-08-10T12:37:58.012Z,100088.38
2022-08-10T12:40:51.562Z,100070.63
2022-08-10T12:44:06.277Z,100067.94
2022-08-10T12:47:01.313Z,100058.81
2022-08-10T12:50:29.560Z,100061.50
2022-08-10T12:53:45.468Z,100065.59
2022-08-10T12:56:40.010Z,100061.69
2022-08-10T12:59:29.985Z,100045.19
2022-08-10T13:02:24.564Z,100039.81
2022-08-10T13:05:13.622Z,100038.38
2022-08-10T13:08:26.896Z,100037.72
2022-08-10T13:12:37.096Z,100062.91
2022-08-10T13:14:33.622Z,100045.19
2022-08-10T13:17:38.658Z,100023.41
2022-08-10T13:20:35.910Z,100034.25
2022-08-10T13:23:29.698Z,100025.09
2022-08-10T13:26:22.011Z,100008.72
2022-08-10T13:29:16.585Z,100017.53
2022-08-10T13:32:13.267Z,100030.94
2022-08-10T13:35:05.511Z,100011.28
2022-08-10T13:37:55.704Z,100009.03
2022-08-10T13:40:48.873Z,100019.75
2022-08-10T13:43:38.930Z,100003.25
2022-08-10T13:46:27.462Z,99987.53
2022-08-10T13:49:16.179Z,99984.53
2022-08-10T13:52:03.780Z,99984.28
2022-08-10T13:54:53.701Z,99989.00
2022-08-10T13:57:47.511Z,99988.66
2022-08-10T14:00:41.023Z,99987.22
2022-08-10T14:03:29.785Z,99991.94
2022-08-10T14:06:18.854Z,99988.13
2022-08-10T14:09:11.293Z,99978.66
2022-08-10T14:12:00.277Z,99992.50
2022-08-10T14:14:52.729Z,99973.88
2022-08-10T14:17:45.057Z,99975.44
2022-08-10T14:20:35.905Z,99976.56
2022-08-10T14:23:23.639Z,99969.28
2022-08-10T14:26:15.833Z,99961.72
2022-08-10T14:29:09.484Z,99956.84
2022-08-10T14:32:02.285Z,99959.19
2022-08-10T14:36:20.784Z,99955.72
2022-08-10T14:38:10.859Z,99955.72
2022-08-10T14:41:05.682Z,99949.56
2022-08-10T14:43:59.072Z,99958.72
2022-08-10T14:46:52.930Z,99955.56
2022-08-10T14:49:57.979Z,99946.78
2022-08-10T14:52:49.017Z,99949.78
2022-08-10T14:55:58.294Z,99976.09
2022-08-10T14:58:58.865Z,99961.34
2022-08-10T15:02:40.392Z,99955.75
2022-08-10T15:05:10.323Z,99946.94
2022-08-10T15:08:01.169Z,99951.31
2022-08-10T15:10:51.175Z,99946.41
2022-08-10T15:13:44.128Z,99946.88
2022-08-10T15:16:55.075Z,99939.59
2022-08-10T15:20:04.566Z,99938.19
2022-08-10T15:23:01.225Z,99941.50
2022-08-10T15:25:57.968Z,99939.16
2022-08-10T15:29:24.133Z,99929.22
2022-08-10T15:32:13.037Z,99933.03
2022-08-10T15:35:21.327Z,99933.69
2022-08-10T15:38:19.438Z,99922.06
2022-08-10T15:41:11.136Z,99927.41
2022-08-10T15:43:59.351Z,99930.75
2022-08-10T15:46:52.958Z,99927.19
2022-08-10T15:49:51.744Z,99924.03
2022-08-10T15:53:02.111Z,99931.63
2022-08-10T15:55:55.051Z,99935.44
2022-08-10T15:58:50.219Z,99910.22
2022-08-10T16:02:12.981Z,99916.00
2022-08-10T16:05:00.931Z,99913.31
2022-08-10T16:07:57.480Z,99909.56
2022-08-10T16:10:53.246Z,99905.75
2022-08-10T16:13:59.221Z,99911.13
2022-08-10T16:16:56.341Z,99905.75
2022-08-10T16:19:51.278Z,99901.53
2022-08-10T16:22:39.120Z,99887.50
2022-08-10T16:25:44.605Z,99895.94
2022-08-10T16:28:43.632Z,99899.63
2022-08-10T16:31:34.448Z,99886.56
2022-08-10T16:34:23.709Z,99891.47
2022-08-10T16:37:14.570Z,99880.78
2022-08-10T16:40:04.174Z,99868.16
2022-08-10T16:42:52.480Z,99867.38
2022-08-10T16:45:45.605Z,99868.03
2022-08-10T16:48:49.669Z,99871.84
2022-08-10T16:51:39.385Z,99862.69
2022-08-10T16:54:27.958Z,99875.75
2022-08-10T16:57:17.426Z,99862.69
2022-08-10T17:00:08.997Z,99879.38
2022-08-10T17:04:04.425Z,99878.47
2022-08-10T17:06:19.367Z,99873.00
2022-08-10T17:09:15.829Z,99863.88
2022-08-10T17:12:10.616Z,99861.19
2022-08-10T17:15:09.737Z,99869.22
2022-08-10T17:18:03.898Z,99872.22
2022-08-10T17:20:52.705Z,99870.63
2022-08-10T17:23:42.526Z,99869.75
2022-08-10T17:26:35.905Z,99875.00
2022-08-10T17:29:57.435Z,99870.28
2022-08-10T17:32:44.591Z,99870.63
2022-08-10T17:35:38.220Z,99869.50
2022-08-10T17:38:29.005Z,99872.63
2022-08-10T17:41:23.752Z,99870.28
2022-08-10T17:44:11.910Z,99870.94
2022-08-10T17:47:01.125Z,99867.03
2022-08-10T17:50:01.382Z,99876.50
2022-08-10T17:52:51.187Z,99872.25
2022-08-10T17:55:40.929Z,99868.34
2022-08-10T17:58:31.187Z,99869.00
2022-08-10T18:01:40.805Z,99872.34
2022-08-10T18:04:41.441Z,99867.97
2022-08-10T18:07:35.456Z,99869.22
2022-08-10T18:10:24.911Z,99878.47
2022-08-10T18:13:13.309Z,99873.13
2022-08-10T18:16:00.926Z,99871.22
2022-08-10T18:18:58.381Z,99876.56
2022-08-10T18:21:50.702Z,99880.22
2022-08-10T18:24:38.875Z,99887.63
2022-08-10T18:27:46.557Z,99885.72
2022-08-10T18:30:48.169Z,99876.94
2022-08-10T18:33:43.237Z,99889.72
2022-08-10T18:36:34.766Z,99880.88
2022-08-10T18:39:26.140Z,99891.69
2022-08-10T18:42:18.445Z,99885.13
2022-08-10T18:45:12.190Z,99889.25
2022-08-10T18:48:06.593Z,99893.75
2022-08-10T18:50:58.010Z,99895.63
2022-08-10T18:53:51.659Z,99900.13
2022-08-10T18:56:55.952Z,99903.03
2022-08-10T19:00:11.086Z,99906.25
2022-08-10T19:03:16.424Z,99904.47
2022-08-10T19:06:38.389Z,99898.56
2022-08-10T19:09:47.065Z,99908.69
2022-08-10T19:12:49.868Z,99911.44
2022-08-10T19:15:46.673Z,99906.38
2022-08-10T19:18:39.470Z,99912.69
2022-08-10T19:21:34.233Z,99914.81
2022-08-10T19:24:28.856Z,99920.34
2022-08-10T19:27:35.526Z,99919.50
2022-08-10T19:30:30.838Z,99925.03
2022-08-10T19:33:33.252Z,99922.50
2022-08-10T19:36:33.800Z,99929.03
2022-08-10T19:39:33.476Z,99935.53
2022-08-10T19:42:42.609Z,99936.72
2022-08-10T19:46:02.137Z,99937.09
2022-08-10T19:48:58.536Z,99944.38
2022-08-10T19:51:56.812Z,99942.31
2022-08-10T19:54:57.342Z,99946.66
2022-08-10T19:57:53.881Z,99947.25
2022-08-10T20:00:54.383Z,99955.81
2022-08-10T20:03:50.439Z,99955.41
2022-08-10T20:06:45.928Z,99951.28
2022-08-10T20:09:50.210Z,99947.66
2022-08-10T20:12:47.911Z,99949.81
2022-08-10T20:15:42.072Z,99958.38
2022-08-10T20:18:37.458Z,99948.34
2022-08-10T20:21:30.817Z,99950.81
2022-08-10T20:24:29.749Z,99950.63
2022-08-10T20:27:58.881Z,99957.00
2022-08-10T20:30:35.862Z,99950.66
2022-08-10T20:33:29.422Z,99953.63
2022-08-10T20:36:27.022Z,99961.88
2022-08-10T20:39:20.179Z,99962.44
2022-08-10T20:42:13.953Z,99953.03
2022-08-10T20:45:06.190Z,99955.19
2022-08-10T20:48:11.414Z,99952.81
2022-08-10T20:51:03.767Z,99953.69
2022-08-10T20:53:57.230Z,99959.28
2022-08-10T20:56:59.561Z,99969.72
2022-08-10T21:00:02.399Z,99958.59
2022-08-10T21:03:22.227Z,99963.22
2022-08-10T21:06:43.360Z,99945.50
2022-08-10T21:09:53.882Z,99951.09
2022-08-10T21:13:00.318Z,99948.28
2022-08-10T21:15:59.494Z,99937.44
2022-08-10T21:18:58.437Z,99943.53
2022-08-10T21:22:08.329Z,99942.84
2022-08-10T21:25:03.526Z,99951.56
2022-08-10T21:28:29.014Z,99955.88
2022-08-10T21:31:46.191Z,99959.13
2022-08-10T21:34:57.208Z,99964.41
2022-08-10T21:37:57.246Z,99959.41
2022-08-10T21:41:18.212Z,99966.88
2022-08-10T21:44:35.921Z,99966.63
2022-08-10T21:52:00.462Z,99960.34
2022-08-10T21:55:02.583Z,99967.81
2022-08-10T21:58:20.650Z,99964.13
2022-08-10T22:01:39.771Z,99967.06
2022-08-10T22:04:45.772Z,99960.50
2022-08-10T22:07:53.588Z,99955.75
2022-08-10T22:11:03.142Z,99952.13
2022-08-10T22:14:10.508Z,99950.03
2022-08-10T22:18:03.962Z,99953.06
2022-08-10T22:24:32.290Z,99955.50
2022-08-10T22:27:48.762Z,99947.84
2022-08-10T22:31:25.259Z,99967.19
2022-08-10T22:31:28.638Z,99953.44
2022-08-10T22:31:28.874Z,99953.38
2022-08-10T22:35:00.783Z,99949.78
2022-08-10T22:38:17.159Z,99960.66
2022-08-10T22:41:32.645Z,99955.38
2022-08-10T22:44:41.254Z,99959.09
2022-08-10T22:47:51.213Z,99962.53
2022-08-10T22:50:43.415Z,99959.38
2022-08-10T22:53:50.483Z,99962.31
2022-08-10T22:56:56.745Z,99964.16
2022-08-10T22:59:44.059Z,99970.56
2022-08-10T23:02:35.338Z,99961.53
2022-08-10T23:05:32.567Z,99958.09
2022-08-10T23:08:30.247Z,99962.88
2022-08-10T23:11:24.878Z,99962.13
2022-08-10T23:14:15.261Z,99950.22
2022-08-10T23:17:22.559Z,99951.28
2022-08-10T23:20:19.422Z,99966.97
2022-08-10T23:23:12.027Z,99970.13
2022-08-10T23:26:16.454Z,99952.66
2022-08-10T23:29:11.797Z,99956.38
2022-08-10T23:32:07.543Z,99962.22
2022-08-10T23:36:30.422Z,99960.16
2022-08-10T23:38:08.201Z,99964.94
2022-08-10T23:40:58.290Z,99960.22
2022-08-10T23:44:03.315Z,99969.22
2022-08-10T23:46:52.173Z,99968.72
2022-08-10T23:49:41.550Z,99969.81
2022-08-10T23:52:33.854Z,99982.53
2022-08-10T23:55:26.590Z,99970.16
2022-08-10T23:58:32.929Z,99970.94
